Hope, Canada
Current Conditions -  °F | °C
As of 8:00 PM on Monday 22 Dec 2014 (Local Time) from CYHE Reporting Station
Overcast Overcast  
Wind Chill: 39°   Ceiling: 6500
Heat Index: 43°   Visibility: 9mi
Dew Point: 39°   Wind: 6mph
Humidity: 87%   Direction: 50°NE
Pressure: 30.38"   Gusts: NA
Location:  49.36°N, 121.5°W
Report Text: CYHE 230400Z AUTO 05005KT 010V070 9SM BKN065 OVC130 06/04 A3038 RMK SLP289
Loading
Personal Weather Stations






























Interactive Weather Map New forecast layout! Learn more

10-Day Weather Forecast

Advertisements
Track Severe Weather on mobile